createdAt,value
2022-11-22T00:00:12.272Z,41.13
2022-11-22T00:00:34.495Z,42.45
2022-11-22T00:00:56.381Z,42.28
2022-11-22T00:01:18.194Z,42.28
2022-11-22T00:01:40.041Z,42.13
2022-11-22T00:02:01.840Z,42.15
2022-11-22T00:02:23.689Z,42.22
2022-11-22T00:02:45.788Z,42.08
2022-11-22T00:03:07.973Z,42.83
2022-11-22T00:03:30.228Z,41.95
2022-11-22T00:03:52.025Z,40.95
2022-11-22T00:04:14.155Z,41.88
2022-11-22T00:04:35.869Z,42.03
2022-11-22T00:04:57.564Z,42.75
2022-11-22T00:05:19.766Z,41.53
2022-11-22T00:05:41.508Z,41.90
2022-11-22T00:06:03.390Z,41.92
2022-11-22T00:06:25.121Z,40.80
2022-11-22T00:06:46.850Z,41.72
2022-11-22T00:07:08.923Z,42.83
2022-11-22T00:07:30.768Z,43.58
2022-11-22T00:07:52.685Z,43.40
2022-11-22T00:08:14.493Z,43.58
2022-11-22T00:08:36.215Z,43.67
2022-11-22T00:08:57.973Z,44.42
2022-11-22T00:09:19.719Z,44.47
2022-11-22T00:09:41.502Z,43.45
2022-11-22T00:10:04.027Z,43.83
2022-11-22T00:10:25.856Z,42.10
2022-11-22T00:10:50.835Z,42.83
2022-11-22T00:11:12.564Z,42.75
2022-11-22T00:11:34.260Z,41.50
2022-11-22T00:11:56.015Z,42.28
2022-11-22T00:12:17.821Z,41.85
2022-11-22T00:12:40.618Z,42.35
2022-11-22T00:13:02.906Z,42.17
2022-11-22T00:13:24.683Z,42.65
2022-11-22T00:13:46.462Z,42.95
2022-11-22T00:14:08.204Z,44.30
2022-11-22T00:14:29.909Z,43.45
2022-11-22T00:14:56.722Z,42.45
2022-11-22T00:15:18.813Z,43.13
2022-11-22T00:15:40.532Z,41.75
2022-11-22T00:16:04.320Z,41.85
2022-11-22T00:16:26.505Z,43.55
2022-11-22T00:16:48.208Z,43.35
2022-11-22T00:17:09.948Z,42.95
2022-11-22T00:17:32.448Z,42.72
2022-11-22T00:17:54.203Z,43.92
2022-11-22T00:18:15.950Z,44.35
2022-11-22T00:18:37.657Z,44.33
2022-11-22T00:18:59.378Z,44.15
2022-11-22T00:19:21.175Z,43.72
2022-11-22T00:19:43.005Z,42.50
2022-11-22T00:20:06.442Z,42.75
2022-11-22T00:20:28.210Z,43.60
2022-11-22T00:20:49.922Z,42.15
2022-11-22T00:21:11.691Z,41.78
2022-11-22T00:21:33.606Z,42.38
2022-11-22T00:21:55.375Z,42.75
2022-11-22T00:22:17.079Z,42.70
2022-11-22T00:22:44.237Z,42.65
2022-11-22T00:23:06.471Z,41.75
2022-11-22T00:23:28.199Z,42.60
2022-11-22T00:23:49.974Z,41.92
2022-11-22T00:24:14.327Z,43.33
2022-11-22T00:24:37.175Z,41.50
2022-11-22T00:24:58.931Z,42.35
2022-11-22T00:25:20.708Z,41.30
2022-11-22T00:25:42.504Z,41.33
2022-11-22T00:26:04.302Z,41.63
2022-11-22T00:26:26.117Z,43.17
2022-11-22T00:26:47.872Z,41.65
2022-11-22T00:27:09.789Z,41.88
2022-11-22T00:27:31.637Z,41.10
2022-11-22T00:27:54.190Z,41.05
2022-11-22T00:28:15.900Z,40.03
2022-11-22T00:28:39.199Z,39.42
2022-11-22T00:29:00.948Z,38.92
2022-11-22T00:29:23.188Z,39.72
2022-11-22T00:29:45.083Z,39.22
2022-11-22T00:30:07.817Z,40.65
2022-11-22T00:30:29.492Z,41.50
2022-11-22T00:30:51.310Z,41.25
2022-11-22T00:31:13.558Z,40.28
2022-11-22T00:31:35.375Z,41.22
2022-11-22T00:31:57.128Z,41.85
2022-11-22T00:32:18.845Z,41.35
2022-11-22T00:32:40.584Z,40.60
2022-11-22T00:33:02.476Z,41.70
2022-11-22T00:33:24.195Z,41.38
2022-11-22T00:33:46.019Z,40.70
2022-11-22T00:34:07.840Z,42.10
2022-11-22T00:34:29.631Z,41.25
2022-11-22T00:34:51.308Z,40.13
2022-11-22T00:35:13.330Z,40.63
2022-11-22T00:35:35.111Z,40.80
2022-11-22T00:35:56.819Z,41.03
2022-11-22T00:36:18.634Z,42.03
2022-11-22T00:36:40.357Z,41.65
2022-11-22T00:37:02.158Z,41.30
2022-11-22T00:37:23.827Z,40.05
2022-11-22T00:37:45.544Z,41.97
2022-11-22T00:38:07.268Z,40.15
2022-11-22T00:38:29.301Z,40.65
2022-11-22T00:38:51.148Z,39.92
2022-11-22T00:39:13.010Z,40.45
2022-11-22T00:39:35.089Z,41.38
2022-11-22T00:39:57.141Z,41.58
2022-11-22T00:40:18.992Z,41.30
2022-11-22T00:40:40.695Z,40.08
2022-11-22T00:41:02.545Z,40.45
2022-11-22T00:41:24.237Z,40.65
2022-11-22T00:41:45.932Z,40.53
2022-11-22T00:42:07.731Z,40.70
2022-11-22T00:42:29.430Z,41.15
2022-11-22T00:42:51.108Z,41.13
2022-11-22T00:43:12.912Z,41.67
2022-11-22T00:43:34.758Z,41.00
2022-11-22T00:43:56.463Z,40.38
2022-11-22T00:44:18.220Z,41.10
2022-11-22T00:44:40.030Z,42.95
2022-11-22T00:45:01.790Z,41.75
2022-11-22T00:45:23.513Z,40.53
2022-11-22T00:45:45.609Z,41.28
2022-11-22T00:46:07.401Z,41.35
2022-11-22T00:46:29.108Z,40.53
2022-11-22T00:46:50.952Z,39.65
2022-11-22T00:47:12.675Z,40.90
2022-11-22T00:47:34.393Z,38.47
2022-11-22T00:47:56.137Z,38.97
2022-11-22T00:48:17.939Z,38.70
2022-11-22T00:48:39.662Z,39.10
2022-11-22T00:49:01.357Z,38.17
2022-11-22T00:49:23.127Z,36.97
2022-11-22T00:49:44.933Z,38.03
2022-11-22T00:50:06.997Z,38.10
2022-11-22T00:50:28.738Z,38.28
2022-11-22T00:50:50.566Z,37.60
2022-11-22T00:51:12.832Z,37.42
2022-11-22T00:51:34.626Z,38.15
2022-11-22T00:51:56.344Z,38.28
2022-11-22T00:52:18.230Z,37.88
2022-11-22T00:52:40.204Z,37.85
2022-11-22T00:53:01.984Z,36.72
2022-11-22T00:53:23.737Z,36.25
2022-11-22T00:53:45.453Z,37.50
2022-11-22T00:54:07.656Z,36.35
2022-11-22T00:54:29.451Z,37.00
2022-11-22T00:54:54.710Z,37.33
2022-11-22T00:55:16.982Z,37.42
2022-11-22T00:55:38.687Z,36.97
2022-11-22T00:56:00.434Z,36.38
2022-11-22T00:56:22.148Z,37.20
2022-11-22T00:56:43.865Z,37.50
2022-11-22T00:57:05.619Z,37.40
2022-11-22T00:57:27.373Z,37.80
2022-11-22T00:57:49.108Z,37.17
2022-11-22T00:58:10.906Z,36.42
2022-11-22T00:58:32.855Z,36.08
2022-11-22T00:58:54.564Z,36.42
2022-11-22T00:59:16.303Z,35.42
2022-11-22T00:59:38.071Z,35.60
2022-11-22T00:59:59.812Z,35.70
2022-11-22T01:00:21.740Z,36.60
2022-11-22T01:00:43.521Z,36.35
2022-11-22T01:01:05.323Z,37.05
2022-11-22T01:01:27.290Z,37.47
2022-11-22T01:01:49.037Z,38.05
2022-11-22T01:02:10.779Z,36.80
2022-11-22T01:02:32.546Z,37.25
2022-11-22T01:02:54.284Z,36.53
2022-11-22T01:03:16.165Z,36.63
2022-11-22T01:03:37.990Z,36.97
2022-11-22T01:04:00.324Z,36.97
2022-11-22T01:04:22.259Z,35.97
2022-11-22T01:04:44.078Z,36.25
2022-11-22T01:05:06.309Z,35.83
2022-11-22T01:05:28.030Z,36.33
2022-11-22T01:05:49.866Z,35.35
2022-11-22T01:06:11.592Z,36.03
2022-11-22T01:06:33.515Z,36.67
2022-11-22T01:06:55.358Z,36.92
2022-11-22T01:07:17.149Z,36.13
2022-11-22T01:07:39.078Z,35.88
2022-11-22T01:08:00.860Z,38.75
2022-11-22T01:08:22.756Z,41.30
2022-11-22T01:08:44.495Z,39.83
2022-11-22T01:09:06.237Z,39.85
2022-11-22T01:09:28.450Z,40.50
2022-11-22T01:09:50.456Z,40.38
2022-11-22T01:10:12.359Z,37.97
2022-11-22T01:10:38.066Z,38.90
2022-11-22T01:11:00.730Z,41.22
2022-11-22T01:11:22.581Z,44.53
2022-11-22T01:11:44.421Z,44.50
2022-11-22T01:12:06.761Z,45.80
2022-11-22T01:12:28.570Z,46.72
2022-11-22T01:12:50.354Z,45.65
2022-11-22T01:13:12.925Z,40.83
2022-11-22T01:13:34.987Z,42.88
2022-11-22T01:13:56.722Z,43.50
2022-11-22T01:14:19.355Z,40.13
2022-11-22T01:14:41.104Z,40.78
2022-11-22T01:15:03.817Z,41.95
2022-11-22T01:15:25.798Z,42.90
2022-11-22T01:15:47.534Z,43.20
2022-11-22T01:16:11.065Z,41.85
2022-11-22T01:16:32.826Z,40.90
2022-11-22T01:16:54.609Z,39.72
2022-11-22T01:17:16.523Z,40.08
2022-11-22T01:17:38.293Z,40.67
2022-11-22T01:18:00.069Z,40.10
2022-11-22T01:18:21.864Z,42.67
2022-11-22T01:18:43.871Z,43.58
2022-11-22T01:19:05.690Z,45.80
2022-11-22T01:19:27.611Z,45.75
2022-11-22T01:19:49.574Z,47.85
2022-11-22T01:20:11.641Z,47.30
2022-11-22T01:20:33.399Z,45.38
2022-11-22T01:20:55.247Z,45.33
2022-11-22T01:21:17.259Z,45.53
2022-11-22T01:21:39.390Z,42.90
2022-11-22T01:22:01.112Z,41.00
2022-11-22T01:22:22.870Z,43.90
2022-11-22T01:22:44.593Z,43.80
2022-11-22T01:23:06.358Z,44.03
2022-11-22T01:23:28.499Z,44.33
2022-11-22T01:23:50.218Z,49.55
2022-11-22T01:24:12.056Z,47.55
2022-11-22T01:24:33.839Z,46.47
2022-11-22T01:24:55.618Z,47.92
2022-11-22T01:25:17.527Z,45.58
2022-11-22T01:25:43.693Z,48.03
2022-11-22T01:26:08.872Z,48.38
2022-11-22T01:26:30.668Z,45.47
2022-11-22T01:26:52.462Z,44.35
2022-11-22T01:27:14.203Z,45.60
2022-11-22T01:27:36.058Z,46.03
2022-11-22T01:27:57.860Z,40.17
2022-11-22T01:28:19.714Z,40.38
2022-11-22T01:28:41.446Z,43.08
2022-11-22T01:29:03.449Z,42.45
2022-11-22T01:29:25.355Z,42.55
2022-11-22T01:29:47.102Z,44.45
2022-11-22T01:30:09.242Z,44.58
2022-11-22T01:30:31.094Z,45.20
2022-11-22T01:30:53.599Z,44.67
2022-11-22T01:31:15.363Z,45.50
2022-11-22T01:31:37.118Z,46.90
2022-11-22T01:31:58.853Z,45.97
2022-11-22T01:32:20.555Z,44.97
2022-11-22T01:32:42.238Z,44.38
2022-11-22T01:33:04.476Z,44.35
2022-11-22T01:33:26.318Z,42.42
2022-11-22T01:33:48.114Z,42.60
2022-11-22T01:34:09.872Z,42.28
2022-11-22T01:34:32.348Z,39.95
2022-11-22T01:34:54.090Z,38.90
2022-11-22T01:35:15.840Z,39.90
2022-11-22T01:35:37.892Z,39.65
2022-11-22T01:35:59.671Z,40.15
2022-11-22T01:36:21.468Z,38.63
2022-11-22T01:36:43.255Z,38.60
2022-11-22T01:37:05.035Z,39.97
2022-11-22T01:37:26.770Z,39.88
2022-11-22T01:37:48.951Z,41.40
2022-11-22T01:38:10.826Z,41.67
2022-11-22T01:38:32.612Z,40.72
2022-11-22T01:38:54.457Z,41.28
2022-11-22T01:39:16.313Z,39.97
2022-11-22T01:39:38.026Z,42.08
2022-11-22T01:39:59.736Z,42.35
2022-11-22T01:40:21.541Z,39.47
2022-11-22T01:40:43.299Z,39.03
2022-11-22T01:41:04.990Z,39.55
2022-11-22T01:41:26.870Z,38.63
2022-11-22T01:41:48.637Z,36.58
2022-11-22T01:42:12.280Z,37.20
2022-11-22T01:42:54.890Z,39.15
2022-11-22T01:43:19.469Z,38.95
2022-11-22T01:43:41.215Z,38.35
2022-11-22T01:44:24.166Z,37.72
2022-11-22T01:44:49.031Z,38.30
2022-11-22T01:45:29.069Z,38.38
2022-11-22T01:45:55.267Z,38.42
2022-11-22T01:46:38.937Z,37.15
2022-11-22T01:47:15.642Z,37.75
2022-11-22T01:47:37.466Z,38.22
2022-11-22T01:48:00.984Z,37.22
2022-11-22T01:48:30.708Z,37.20
2022-11-22T01:49:01.715Z,38.00
2022-11-22T01:49:29.466Z,37.80
2022-11-22T01:50:00.441Z,38.55
2022-11-22T01:50:22.405Z,38.00
2022-11-22T01:50:46.853Z,37.88
2022-11-22T01:51:24.219Z,38.25
2022-11-22T01:51:49.385Z,37.42
2022-11-22T01:52:17.568Z,37.35
2022-11-22T01:52:39.290Z,37.13
2022-11-22T01:53:05.355Z,37.35
2022-11-22T01:53:32.994Z,37.83
2022-11-22T01:53:58.530Z,38.10
2022-11-22T01:54:23.541Z,38.45
2022-11-22T01:54:51.010Z,36.72
2022-11-22T01:55:13.186Z,37.83
2022-11-22T01:55:35.891Z,36.58
2022-11-22T01:55:59.953Z,37.17
2022-11-22T01:56:22.542Z,37.90
2022-11-22T01:56:48.249Z,38.00
2022-11-22T01:57:17.342Z,37.95
2022-11-22T01:57:40.995Z,39.35
2022-11-22T01:58:03.334Z,38.28
2022-11-22T01:58:27.138Z,37.50
2022-11-22T01:58:55.393Z,37.10
2022-11-22T01:59:22.516Z,37.35
2022-11-22T01:59:53.587Z,38.67
2022-11-22T02:00:17.247Z,38.10
2022-11-22T02:00:39.444Z,37.85
2022-11-22T02:01:02.227Z,37.92
2022-11-22T02:01:24.204Z,38.35
2022-11-22T02:01:46.101Z,38.40
2022-11-22T02:02:07.977Z,38.72
2022-11-22T02:02:30.438Z,38.75
2022-11-22T02:02:58.972Z,38.97
2022-11-22T02:03:22.792Z,37.55
2022-11-22T02:03:48.642Z,38.15
2022-11-22T02:04:13.736Z,36.97
2022-11-22T02:04:36.798Z,37.90
2022-11-22T02:05:02.441Z,38.13
2022-11-22T02:05:29.126Z,37.65
2022-11-22T02:05:51.928Z,37.47
2022-11-22T02:06:14.497Z,38.65
2022-11-22T02:07:02.423Z,38.85
2022-11-22T02:07:27.306Z,38.28
2022-11-22T02:08:00.637Z,38.67
2022-11-22T02:08:58.770Z,38.35
2022-11-22T02:09:21.998Z,39.80
2022-11-22T02:09:45.175Z,39.08
2022-11-22T02:10:07.518Z,39.08
2022-11-22T02:10:34.406Z,38.38
2022-11-22T02:10:59.328Z,38.17
2022-11-22T02:11:22.025Z,39.97
2022-11-22T02:11:48.359Z,40.08
2022-11-22T02:12:11.940Z,39.50
2022-11-22T02:12:35.391Z,39.33
2022-11-22T02:12:59.577Z,39.10
2022-11-22T02:13:23.726Z,39.17
2022-11-22T02:13:45.867Z,39.60
2022-11-22T02:14:09.104Z,38.60
2022-11-22T02:14:32.075Z,39.08
2022-11-22T02:14:54.785Z,39.95
2022-11-22T02:15:16.551Z,39.95
2022-11-22T02:15:38.327Z,41.03
2022-11-22T02:16:00.616Z,40.80
2022-11-22T02:16:22.704Z,40.10
2022-11-22T02:16:46.908Z,39.38
2022-11-22T02:17:08.673Z,38.28
2022-11-22T02:17:30.388Z,39.10
2022-11-22T02:17:52.245Z,38.78
2022-11-22T02:18:14.204Z,39.00
2022-11-22T02:18:37.310Z,38.70
2022-11-22T02:18:59.052Z,38.53
2022-11-22T02:19:34.506Z,39.92
2022-11-22T02:19:57.023Z,39.33
2022-11-22T02:20:19.317Z,40.00
2022-11-22T02:20:41.789Z,39.05
2022-11-22T02:21:05.176Z,39.13
2022-11-22T02:21:27.504Z,38.85
2022-11-22T02:21:57.307Z,40.03
2022-11-22T02:22:47.465Z,39.50
2022-11-22T02:23:35.252Z,40.88
2022-11-22T02:24:11.833Z,41.03
2022-11-22T02:24:51.981Z,39.85
2022-11-22T02:25:26.167Z,40.88
2022-11-22T02:25:54.042Z,41.50
2022-11-22T02:26:16.057Z,41.60
2022-11-22T02:26:38.034Z,40.97
2022-11-22T02:26:59.894Z,41.03
2022-11-22T02:27:21.725Z,40.92
2022-11-22T02:27:43.732Z,42.28
2022-11-22T02:28:05.666Z,41.65
2022-11-22T02:28:30.952Z,42.00
2022-11-22T02:28:53.363Z,42.10
2022-11-22T02:29:15.663Z,40.90
2022-11-22T02:29:38.799Z,41.25
2022-11-22T02:30:00.524Z,40.85
2022-11-22T02:30:22.479Z,42.03
2022-11-22T02:30:44.250Z,43.47
2022-11-22T02:31:06.499Z,43.22
2022-11-22T02:31:43.565Z,42.63
2022-11-22T02:32:05.412Z,42.70
2022-11-22T02:32:27.124Z,43.25
2022-11-22T02:32:49.080Z,43.25
2022-11-22T02:33:11.192Z,42.13
2022-11-22T02:33:33.237Z,43.08
2022-11-22T02:34:00.236Z,44.55
2022-11-22T02:34:23.385Z,42.75
2022-11-22T02:34:51.585Z,43.28
2022-11-22T02:35:21.909Z,43.10
2022-11-22T02:35:44.855Z,43.22
2022-11-22T02:36:06.629Z,43.35
2022-11-22T02:36:28.755Z,43.40
2022-11-22T02:36:52.861Z,42.78
2022-11-22T02:37:19.111Z,43.45
2022-11-22T02:37:40.940Z,43.92
2022-11-22T02:38:08.134Z,42.92
2022-11-22T02:38:34.912Z,42.70
2022-11-22T02:38:56.927Z,43.20
2022-11-22T02:39:23.658Z,44.47
2022-11-22T02:39:48.033Z,43.28
2022-11-22T02:40:14.970Z,43.85
2022-11-22T02:40:45.241Z,43.28
2022-11-22T02:41:11.200Z,43.67
2022-11-22T02:41:33.847Z,42.28
2022-11-22T02:41:56.717Z,43.28
2022-11-22T02:42:18.524Z,41.95
2022-11-22T02:42:42.424Z,42.85
2022-11-22T02:43:08.150Z,42.80
2022-11-22T02:43:34.266Z,42.05
2022-11-22T02:43:56.441Z,41.33
2022-11-22T02:44:19.443Z,41.25
2022-11-22T02:44:41.927Z,42.10
2022-11-22T02:45:03.973Z,41.58
2022-11-22T02:45:25.800Z,41.20
2022-11-22T02:45:47.559Z,41.35
2022-11-22T02:46:12.033Z,43.80
2022-11-22T02:46:33.992Z,41.95
2022-11-22T02:46:56.453Z,42.53
2022-11-22T02:47:18.152Z,43.03
2022-11-22T02:47:39.853Z,43.53
2022-11-22T02:48:07.658Z,43.35
2022-11-22T02:48:29.447Z,43.78
2022-11-22T02:48:51.228Z,43.17
2022-11-22T02:49:12.982Z,43.40
2022-11-22T02:49:34.698Z,43.58
2022-11-22T02:49:56.524Z,42.55
2022-11-22T02:50:18.375Z,42.78
2022-11-22T02:50:40.617Z,44.20
2022-11-22T02:51:02.356Z,43.38
2022-11-22T02:51:24.769Z,43.45
2022-11-22T02:51:46.897Z,43.50
2022-11-22T02:52:09.126Z,43.15
2022-11-22T02:52:30.903Z,43.78
2022-11-22T02:52:52.610Z,43.03
2022-11-22T02:53:14.536Z,42.13
2022-11-22T02:53:36.595Z,42.63
2022-11-22T02:53:58.518Z,44.72
2022-11-22T02:54:20.329Z,45.22
2022-11-22T02:54:42.002Z,42.72
2022-11-22T02:55:04.032Z,42.38
2022-11-22T02:55:25.764Z,42.50
2022-11-22T02:55:47.553Z,42.08
2022-11-22T02:56:09.496Z,42.28
2022-11-22T02:56:31.711Z,41.78
2022-11-22T02:56:53.918Z,41.88
2022-11-22T02:57:16.084Z,42.42
2022-11-22T02:57:37.947Z,41.53
2022-11-22T02:57:59.703Z,40.65
2022-11-22T02:58:21.477Z,40.67
2022-11-22T02:58:44.300Z,40.28
2022-11-22T02:59:06.181Z,40.65
2022-11-22T02:59:28.268Z,41.00
2022-11-22T02:59:50.236Z,41.70
2022-11-22T03:00:12.524Z,39.78
2022-11-22T03:00:36.123Z,39.35
2022-11-22T03:00:58.000Z,40.75
2022-11-22T03:01:19.920Z,39.95
2022-11-22T03:01:43.167Z,39.45
2022-11-22T03:02:04.916Z,39.53
2022-11-22T03:02:26.704Z,40.10
2022-11-22T03:02:48.566Z,39.88
2022-11-22T03:03:10.317Z,40.30
2022-11-22T03:03:33.048Z,40.83
2022-11-22T03:03:54.861Z,39.47
2022-11-22T03:04:25.008Z,39.28
2022-11-22T03:04:47.072Z,38.97
2022-11-22T03:05:08.993Z,40.10
2022-11-22T03:05:30.805Z,39.92
2022-11-22T03:05:52.486Z,40.78
2022-11-22T03:06:14.206Z,40.63
2022-11-22T03:06:35.942Z,41.40
2022-11-22T03:06:59.722Z,40.58
2022-11-22T03:07:21.507Z,41.75
2022-11-22T03:07:43.361Z,43.00
2022-11-22T03:08:05.248Z,44.08
2022-11-22T03:08:26.945Z,43.28
2022-11-22T03:08:53.181Z,41.97
2022-11-22T03:09:17.904Z,43.72
2022-11-22T03:09:39.818Z,43.10
2022-11-22T03:10:01.530Z,42.90
2022-11-22T03:10:23.377Z,43.70
2022-11-22T03:10:45.207Z,43.67
2022-11-22T03:11:06.956Z,43.90
2022-11-22T03:11:28.687Z,43.58
2022-11-22T03:11:50.748Z,43.25
2022-11-22T03:12:12.461Z,42.70
2022-11-22T03:12:34.228Z,43.83
2022-11-22T03:12:58.301Z,43.45
2022-11-22T03:13:20.062Z,41.50
2022-11-22T03:13:42.010Z,42.55
2022-11-22T03:14:03.832Z,43.22
2022-11-22T03:14:25.966Z,43.75
2022-11-22T03:14:47.685Z,43.42
2022-11-22T03:15:09.813Z,42.85
2022-11-22T03:15:31.569Z,43.10
2022-11-22T03:15:53.315Z,42.22
2022-11-22T03:16:15.047Z,43.33
2022-11-22T03:16:36.809Z,43.35
2022-11-22T03:16:58.555Z,43.63
2022-11-22T03:17:20.285Z,43.20
2022-11-22T03:17:41.993Z,43.30
2022-11-22T03:18:04.907Z,42.80
2022-11-22T03:18:26.633Z,42.67
2022-11-22T03:18:48.368Z,43.10
2022-11-22T03:19:11.007Z,43.85
2022-11-22T03:19:33.041Z,43.75
2022-11-22T03:19:54.960Z,43.60
2022-11-22T03:20:16.761Z,42.75
2022-11-22T03:20:38.522Z,43.25
2022-11-22T03:21:08.196Z,43.42
2022-11-22T03:21:30.088Z,43.30
2022-11-22T03:21:52.141Z,42.30
2022-11-22T03:22:14.232Z,43.58
2022-11-22T03:22:36.224Z,43.58
2022-11-22T03:23:00.336Z,43.30
2022-11-22T03:23:22.097Z,43.65
2022-11-22T03:23:43.899Z,43.63
2022-11-22T03:24:07.001Z,43.00
2022-11-22T03:24:28.830Z,42.45
2022-11-22T03:24:50.620Z,42.78
2022-11-22T03:25:12.316Z,41.55
2022-11-22T03:25:38.042Z,42.25
2022-11-22T03:26:00.011Z,42.20
2022-11-22T03:26:21.708Z,42.20
2022-11-22T03:26:50.217Z,43.25
2022-11-22T03:27:11.934Z,41.85
2022-11-22T03:27:33.766Z,41.63
2022-11-22T03:27:56.036Z,41.08
2022-11-22T03:28:17.790Z,41.60
2022-11-22T03:28:39.519Z,41.67
2022-11-22T03:29:01.365Z,40.95
2022-11-22T03:29:23.138Z,40.50
2022-11-22T03:29:45.032Z,41.55
2022-11-22T03:30:07.382Z,41.30
2022-11-22T03:30:29.153Z,41.63
2022-11-22T03:30:50.847Z,42.08
2022-11-22T03:31:12.627Z,42.28
2022-11-22T03:31:34.337Z,41.25
2022-11-22T03:31:56.122Z,40.95
2022-11-22T03:32:17.819Z,42.25
2022-11-22T03:32:39.642Z,41.38
2022-11-22T03:33:01.397Z,40.70
2022-11-22T03:33:23.095Z,40.92
2022-11-22T03:33:44.895Z,40.80
2022-11-22T03:34:06.877Z,40.05
2022-11-22T03:34:28.716Z,39.95
2022-11-22T03:34:50.443Z,39.95
2022-11-22T03:35:12.341Z,39.10
2022-11-22T03:35:34.082Z,39.47
2022-11-22T03:35:57.816Z,40.38
2022-11-22T03:36:19.681Z,40.20
2022-11-22T03:36:41.465Z,39.70
2022-11-22T03:37:03.264Z,39.78
2022-11-22T03:37:25.170Z,39.55
2022-11-22T03:37:46.929Z,38.35
2022-11-22T03:38:08.682Z,38.60
2022-11-22T03:38:30.793Z,39.67
2022-11-22T03:38:52.514Z,40.28
2022-11-22T03:39:14.325Z,39.55
2022-11-22T03:39:36.129Z,40.55
2022-11-22T03:39:57.917Z,40.92
2022-11-22T03:40:21.118Z,39.97
2022-11-22T03:40:46.844Z,40.55
2022-11-22T03:41:08.632Z,39.97
2022-11-22T03:41:30.513Z,38.75
2022-11-22T03:41:52.241Z,39.53
2022-11-22T03:42:20.986Z,40.05
2022-11-22T03:42:43.517Z,38.92
2022-11-22T03:43:05.275Z,40.35
2022-11-22T03:43:27.239Z,39.15
2022-11-22T03:43:49.079Z,39.75
2022-11-22T03:44:10.926Z,39.55
2022-11-22T03:44:32.654Z,39.22
2022-11-22T03:44:54.377Z,40.45
2022-11-22T03:45:16.291Z,41.25
2022-11-22T03:45:37.987Z,40.83
2022-11-22T03:45:59.663Z,41.60
2022-11-22T03:46:21.516Z,40.92
2022-11-22T03:46:43.339Z,40.00
2022-11-22T03:47:05.064Z,41.58
2022-11-22T03:47:26.862Z,41.60
2022-11-22T03:47:48.745Z,40.53
2022-11-22T03:48:10.499Z,40.35
2022-11-22T03:48:32.293Z,40.67
2022-11-22T03:48:54.213Z,41.03
2022-11-22T03:49:15.954Z,40.90
2022-11-22T03:49:37.633Z,41.25
2022-11-22T03:49:59.311Z,42.28
2022-11-22T03:50:21.076Z,41.22
2022-11-22T03:50:43.025Z,40.15
2022-11-22T03:51:05.978Z,41.50
2022-11-22T03:51:28.070Z,41.75
2022-11-22T03:51:49.839Z,41.70
2022-11-22T03:52:12.148Z,41.70
2022-11-22T03:52:33.877Z,41.05
2022-11-22T03:52:55.738Z,40.92
2022-11-22T03:53:17.567Z,40.80
2022-11-22T03:53:39.413Z,40.50
2022-11-22T03:54:01.160Z,40.75
2022-11-22T03:54:22.941Z,40.15
2022-11-22T03:54:45.034Z,40.45
2022-11-22T03:55:06.995Z,40.67
2022-11-22T03:55:28.763Z,41.15
2022-11-22T03:55:50.520Z,40.55
2022-11-22T03:56:12.504Z,40.55
2022-11-22T03:56:34.197Z,40.47
2022-11-22T03:56:55.963Z,40.53
2022-11-22T03:57:17.777Z,39.28
2022-11-22T03:57:39.497Z,41.45
2022-11-22T03:58:01.248Z,39.65
2022-11-22T03:58:22.955Z,40.15
2022-11-22T03:58:44.761Z,39.83
2022-11-22T03:59:06.473Z,39.67
2022-11-22T03:59:28.628Z,39.13
2022-11-22T03:59:50.426Z,39.55
2022-11-22T04:00:12.840Z,39.50
2022-11-22T04:00:35.098Z,40.08
2022-11-22T04:00:57.798Z,41.35
2022-11-22T04:01:19.645Z,41.90
2022-11-22T04:01:41.551Z,40.63
2022-11-22T04:02:03.490Z,41.42
2022-11-22T04:02:25.246Z,39.78
2022-11-22T04:02:47.013Z,39.00
2022-11-22T04:03:08.722Z,39.53
2022-11-22T04:03:30.490Z,39.83
2022-11-22T04:03:52.451Z,39.30
2022-11-22T04:04:14.240Z,39.65
2022-11-22T04:04:36.016Z,38.92
2022-11-22T04:04:57.800Z,40.00
2022-11-22T04:05:19.613Z,39.70
2022-11-22T04:05:41.357Z,39.25
2022-11-22T04:06:03.077Z,38.53
2022-11-22T04:06:24.868Z,39.92
2022-11-22T04:06:46.613Z,39.20
2022-11-22T04:07:08.762Z,39.50
2022-11-22T04:07:30.598Z,39.22
2022-11-22T04:07:58.439Z,40.17
2022-11-22T04:08:20.240Z,40.42
2022-11-22T04:08:42.148Z,39.40
2022-11-22T04:09:04.576Z,38.90
2022-11-22T04:09:26.458Z,39.60
2022-11-22T04:09:48.424Z,39.63
2022-11-22T04:10:10.273Z,38.05
2022-11-22T04:10:32.026Z,39.42
2022-11-22T04:10:53.751Z,40.33
2022-11-22T04:11:15.581Z,39.72
2022-11-22T04:11:37.367Z,40.13
2022-11-22T04:11:59.451Z,39.17
2022-11-22T04:12:21.195Z,38.28
2022-11-22T04:12:42.935Z,38.15
2022-11-22T04:13:04.674Z,39.20
2022-11-22T04:13:46.374Z,39.20
2022-11-22T04:14:30.243Z,38.10
2022-11-22T04:15:07.265Z,38.60
2022-11-22T04:15:29.070Z,37.58
2022-11-22T04:15:50.748Z,38.25
2022-11-22T04:16:12.502Z,39.00
2022-11-22T04:16:34.167Z,38.75
2022-11-22T04:16:56.011Z,39.17
2022-11-22T04:17:37.700Z,38.97
2022-11-22T04:17:59.462Z,38.38
2022-11-22T04:18:21.170Z,37.97
2022-11-22T04:18:42.913Z,37.63
2022-11-22T04:19:04.636Z,39.78
2022-11-22T04:19:26.467Z,39.20
2022-11-22T04:20:08.162Z,39.25
2022-11-22T04:20:49.445Z,37.50
2022-11-22T04:21:29.866Z,37.05
2022-11-22T04:21:51.589Z,38.30
2022-11-22T04:22:13.328Z,38.70
2022-11-22T04:22:35.016Z,39.05
2022-11-22T04:23:03.708Z,37.40
2022-11-22T04:23:32.259Z,36.38
2022-11-22T04:24:13.822Z,36.92
2022-11-22T04:24:53.869Z,37.55
2022-11-22T04:25:15.651Z,38.78
2022-11-22T04:25:39.827Z,38.40
2022-11-22T04:26:01.649Z,39.50
2022-11-22T04:26:23.318Z,39.78
2022-11-22T04:26:45.058Z,39.65
2022-11-22T04:27:06.836Z,40.58
2022-11-22T04:27:28.521Z,40.22
2022-11-22T04:27:50.189Z,40.08
2022-11-22T04:28:12.872Z,39.55
2022-11-22T04:29:02.044Z,39.47
2022-11-22T04:29:18.092Z,40.22
2022-11-22T04:29:39.764Z,39.05
2022-11-22T04:30:01.474Z,39.28
2022-11-22T04:30:42.831Z,40.25
2022-11-22T04:31:24.803Z,39.13
2022-11-22T04:32:05.852Z,39.88
2022-11-22T04:32:45.813Z,38.53
2022-11-22T04:33:07.550Z,40.25
2022-11-22T04:33:29.353Z,38.90
2022-11-22T04:33:51.101Z,37.42
2022-11-22T04:34:12.916Z,38.92
2022-11-22T04:34:34.944Z,38.17
2022-11-22T04:34:56.718Z,37.58
2022-11-22T04:35:21.124Z,38.33
2022-11-22T04:35:44.003Z,38.38
2022-11-22T04:36:11.857Z,38.08
2022-11-22T04:36:34.936Z,37.47
2022-11-22T04:36:56.822Z,37.28
2022-11-22T04:37:18.512Z,37.67
2022-11-22T04:37:40.246Z,37.10
2022-11-22T04:38:02.170Z,37.50
2022-11-22T04:38:23.948Z,37.42
2022-11-22T04:38:45.688Z,37.45
2022-11-22T04:39:07.536Z,36.70
2022-11-22T04:39:29.953Z,36.42
2022-11-22T04:39:51.860Z,36.90
2022-11-22T04:40:13.648Z,36.90
2022-11-22T04:40:35.459Z,37.10
2022-11-22T04:40:57.192Z,37.03
2022-11-22T04:41:18.940Z,37.78
2022-11-22T04:41:40.669Z,37.35
2022-11-22T04:42:20.736Z,37.47
2022-11-22T04:43:01.099Z,36.38
2022-11-22T04:43:45.126Z,36.78
2022-11-22T04:44:45.401Z,36.80
2022-11-22T04:45:08.088Z,37.40
2022-11-22T04:45:29.786Z,37.15
2022-11-22T04:45:52.313Z,36.42
2022-11-22T04:46:15.898Z,36.67
2022-11-22T04:46:38.248Z,37.55
2022-11-22T04:47:02.261Z,37.22
2022-11-22T04:47:46.171Z,36.83
2022-11-22T04:48:12.329Z,36.95
2022-11-22T04:48:34.195Z,36.75
2022-11-22T04:48:56.031Z,36.15
2022-11-22T04:49:17.785Z,36.35
2022-11-22T04:49:39.501Z,37.05
2022-11-22T04:50:02.026Z,36.55
2022-11-22T04:50:42.460Z,36.22
2022-11-22T04:51:24.574Z,35.67
2022-11-22T04:52:05.036Z,36.95
2022-11-22T04:52:45.459Z,36.15
2022-11-22T04:53:07.182Z,35.28
2022-11-22T04:53:29.954Z,36.38
2022-11-22T04:53:52.224Z,36.55
2022-11-22T04:54:13.979Z,36.10
2022-11-22T04:54:35.687Z,35.83
2022-11-22T04:54:57.426Z,37.38
2022-11-22T04:55:19.132Z,37.30
2022-11-22T04:55:41.718Z,36.88
2022-11-22T04:56:03.581Z,36.75
2022-11-22T04:56:25.322Z,37.07
2022-11-22T04:56:47.029Z,35.63
2022-11-22T04:57:08.792Z,35.25
2022-11-22T04:57:30.516Z,35.80
2022-11-22T04:57:57.724Z,35.80
2022-11-22T04:58:21.947Z,37.80
2022-11-22T04:58:43.871Z,37.35
2022-11-22T04:59:05.593Z,36.38
2022-11-22T04:59:27.503Z,36.92
2022-11-22T04:59:49.523Z,37.15
2022-11-22T05:00:11.787Z,37.33
2022-11-22T05:00:33.883Z,36.95
2022-11-22T05:00:55.726Z,36.13
2022-11-22T05:01:18.393Z,35.10
2022-11-22T05:01:40.282Z,35.58
2022-11-22T05:02:02.074Z,35.72